Airfield :
LOGIN :

Register | Disclaimer

   EN    FR    IT 

 










Legend :    VFR   Marginal VFR   IFR   Intensive IFR   Very Intensive IFR
Visi :
Ceiling :
>= 8 km
>= 3000ft
5 to 8 km
1000 to 3000 ft
1500m to 5 km
500 to 1000 ft
800 to 1500m
200 to 500 ft
< 800m
< 200 ft
Symbols :   Thunderstorms  Fog  Heavy snow  Heavy precipitations  Wind > 20 kt
SIGMETs :     Misc.  Thunderstorms  Icing  Turbulence  Mountain Waves  Volcanic Ashes







- Airport Elevation : 1036 ft
- IATA code : ERF


EDDE - Erfurt

CURRENT METAR :
  • 210950Z 21022KT CAVOK 25/13 Q1008 TEMPO 21020G30KT

EXPIRED METARs :
  • 210920Z 22020KT 190V260 CAVOK 25/11 Q1008 TEMPO 22020G30KT
  • 210850Z 20012G26KT 170V240 CAVOK 24/11 Q1008 BECMG 19015G25KT
  • 210820Z 18013KT CAVOK 24/12 Q1008 BECMG 19015G25KT
  • 210750Z 19015KT CAVOK 23/12 Q1008 BECMG 19015G25KT
  • 210720Z 19014KT CAVOK 22/12 Q1009 BECMG 19015G25KT

TAF TAF EDDE
Valid from the 21 at 06:00 until the 22 at 06:00 UTC


210500Z 2106/2206 20013KT CAVOK
BECMG 2107/2109 23015G25KT
PROB40
TEMPO 2109/2115 23020G35KT
PROB40
TEMPO 2114/2116 RA
BECMG 2114/2117 25010KT
No reported NOTAMs for that airfield.



MET'MAP, your aeronautical weather chart ! - Copyright ORBIFLY December 2007 - Disclaimer

ORBIFLY MET'MAP TEAM :

Programming & Development : Alexandra Zaïnal
Concept & Development : Baudouin d'Aumeries
Co-Development & Prog : Marc-Olivier Méhu
Technical & hardware support : Manuel Goepfert

Contact : metmap@orbifly.com




SOURCES & CREDITS :

   NOAA